Time,TemperatureF,DewpointF,PressureIn,WindDirection,WindDirectionDegrees,WindSpeedMPH,WindSpeedGustMPH,Humidity,HourlyPrecipIn,Conditions,Clouds,dailyrainin,SoftwareType,DateUTC
2013-08-18 00:02:00,59.4,55.2,30.11,SSE,167,0.0,0.0,86,0.00,,,0.00,Wunderground v.1.15,2013-08-18 05:02:00,
2013-08-18 00:08:00,59.3,55.7,30.11,SSE,167,0.0,0.0,88,0.00,,,0.00,Wunderground v.1.15,2013-08-18 05:08:00,
2013-08-18 00:22:00,59.2,54.7,30.11,SSE,167,0.0,0.0,85,0.00,,,0.00,Wunderground v.1.15,2013-08-18 05:22:00,
2013-08-18 00:28:00,58.8,54.6,30.11,SSE,167,0.0,0.0,86,0.00,,,0.00,Wunderground v.1.15,2013-08-18 05:28:00,
2013-08-18 00:34:00,58.7,54.8,30.11,SSE,167,0.0,0.0,87,0.00,,,0.00,Wunderground v.1.15,2013-08-18 05:34:00,
2013-08-18 00:40:00,58.8,55.3,30.11,SSE,167,0.0,0.0,88,0.00,,,0.00,Wunderground v.1.15,2013-08-18 05:40:00,
2013-08-18 00:45:00,58.7,54.5,30.11,SSE,167,0.0,0.0,86,0.00,,,0.00,Wunderground v.1.15,2013-08-18 05:45:00,
2013-08-18 00:50:00,58.4,54.5,30.11,SSE,167,0.0,0.0,87,0.00,,,0.00,Wunderground v.1.15,2013-08-18 05:50:00,
2013-08-18 00:55:00,58.3,54.8,30.11,SSE,167,0.0,0.0,88,0.00,,,0.00,Wunderground v.1.15,2013-08-18 05:55:00,
2013-08-18 01:00:00,58.4,55.2,30.11,SSE,167,0.0,0.0,89,0.00,,,0.00,Wunderground v.1.15,2013-08-18 06:00:00,
2013-08-18 01:06:00,58.4,55.2,30.11,SSE,167,0.0,0.0,89,0.00,,,0.00,Wunderground v.1.15,2013-08-18 06:06:00,
2013-08-18 01:12:00,58.5,55.3,30.11,SSE,167,0.0,0.0,89,0.00,,,0.00,Wunderground v.1.15,2013-08-18 06:12:00,
2013-08-18 01:18:00,58.4,54.9,30.11,SSE,167,0.0,0.0,88,0.00,,,0.00,Wunderground v.1.15,2013-08-18 06:18:00,
2013-08-18 01:24:00,57.8,53.6,30.11,SSE,167,0.0,0.0,86,0.00,,,0.00,Wunderground v.1.15,2013-08-18 06:24:00,
2013-08-18 01:30:00,57.5,54.0,30.11,SSE,167,0.0,0.0,88,0.00,,,0.00,Wunderground v.1.15,2013-08-18 06:30:00,
2013-08-18 01:35:00,57.5,54.3,30.11,SSE,167,0.0,0.0,89,0.00,,,0.00,Wunderground v.1.15,2013-08-18 06:35:00,
2013-08-18 01:42:00,57.6,54.7,30.11,SSE,167,0.0,0.0,90,0.00,,,0.00,Wunderground v.1.15,2013-08-18 06:42:00,
2013-08-18 01:48:00,57.4,54.2,30.11,SSE,167,0.0,0.0,89,0.00,,,0.00,Wunderground v.1.15,2013-08-18 06:48:00,
2013-08-18 01:53:00,57.1,53.9,30.11,SSE,167,0.0,0.0,89,0.00,,,0.00,Wunderground v.1.15,2013-08-18 06:53:00,
2013-08-18 01:59:00,56.9,53.7,30.11,SSE,167,0.0,0.0,89,0.00,,,0.00,Wunderground v.1.15,2013-08-18 06:59:00,
2013-08-18 02:04:00,56.8,53.9,30.11,SSE,167,0.0,0.0,90,0.00,,,0.00,Wunderground v.1.15,2013-08-18 07:04:00,
2013-08-18 02:09:00,56.8,53.9,30.11,SSE,167,0.0,0.0,90,0.00,,,0.00,Wunderground v.1.15,2013-08-18 07:09:00,
2013-08-18 02:14:00,56.9,54.3,30.11,SSE,167,0.0,0.0,91,0.00,,,0.00,Wunderground v.1.15,2013-08-18 07:14:00,
2013-08-18 02:19:00,56.9,54.0,30.11,SSE,167,0.0,0.0,90,0.00,,,0.00,Wunderground v.1.15,2013-08-18 07:19:00,
2013-08-18 02:24:00,56.6,53.7,30.11,SSE,167,0.0,0.0,90,0.00,,,0.00,Wunderground v.1.15,2013-08-18 07:24:00,
2013-08-18 02:29:00,56.3,53.4,30.11,SSE,167,0.0,0.0,90,0.00,,,0.00,Wunderground v.1.15,2013-08-18 07:29:00,
2013-08-18 02:34:00,56.1,52.9,30.11,SSE,167,0.0,0.0,89,0.00,,,0.00,Wunderground v.1.15,2013-08-18 07:34:00,
2013-08-18 02:39:00,55.9,53.0,30.11,SSE,167,0.0,0.0,90,0.00,,,0.00,Wunderground v.1.15,2013-08-18 07:39:00,
2013-08-18 02:44:00,55.8,52.9,30.11,SSE,167,0.0,0.0,90,0.00,,,0.00,Wunderground v.1.15,2013-08-18 07:44:00,
2013-08-18 02:49:00,55.8,53.2,30.11,SSE,167,0.0,0.0,91,0.00,,,0.00,Wunderground v.1.15,2013-08-18 07:49:00,
2013-08-18 02:54:00,56.0,53.7,30.11,SSE,167,0.0,0.0,92,0.00,,,0.00,Wunderground v.1.15,2013-08-18 07:54:00,
2013-08-18 02:59:00,55.9,53.3,30.11,SSE,167,0.0,0.0,91,0.00,,,0.00,Wunderground v.1.15,2013-08-18 07:59:00,
2013-08-18 03:04:00,55.6,53.0,30.11,SSE,167,0.0,0.0,91,0.00,,,0.00,Wunderground v.1.15,2013-08-18 08:04:00,
2013-08-18 03:09:00,55.6,53.3,30.11,SSE,167,0.0,0.0,92,0.00,,,0.00,Wunderground v.1.15,2013-08-18 08:09:00,
2013-08-18 03:14:00,55.3,52.7,30.11,SSE,167,0.0,0.0,91,0.00,,,0.00,Wunderground v.1.15,2013-08-18 08:14:00,
2013-08-18 03:19:00,55.2,52.6,30.11,SSE,167,0.0,0.0,91,0.00,,,0.00,Wunderground v.1.15,2013-08-18 08:19:00,
2013-08-18 03:24:00,55.2,52.9,30.11,SSE,167,0.0,0.0,92,0.00,,,0.00,Wunderground v.1.15,2013-08-18 08:24:00,
2013-08-18 03:29:00,55.1,52.8,30.11,SSE,167,0.0,0.0,92,0.00,,,0.00,Wunderground v.1.15,2013-08-18 08:29:00,
2013-08-18 03:34:00,54.9,52.3,30.11,SSE,167,0.0,0.0,91,0.00,,,0.00,Wunderground v.1.15,2013-08-18 08:34:00,
2013-08-18 03:39:00,54.8,52.5,30.11,SSE,167,0.0,0.0,92,0.00,,,0.00,Wunderground v.1.15,2013-08-18 08:39:00,
2013-08-18 03:44:00,54.9,52.9,30.10,SSE,167,0.0,0.0,93,0.00,,,0.00,Wunderground v.1.15,2013-08-18 08:44:00,
2013-08-18 03:49:00,55.1,53.1,30.11,SSE,167,0.0,0.0,93,0.00,,,0.00,Wunderground v.1.15,2013-08-18 08:49:00,
2013-08-18 03:54:00,55.2,53.2,30.11,SSE,167,0.0,0.0,93,0.00,,,0.00,Wunderground v.1.15,2013-08-18 08:54:00,
2013-08-18 03:59:00,55.1,53.1,30.11,SSE,167,0.0,0.0,93,0.00,,,0.00,Wunderground v.1.15,2013-08-18 08:59:00,
2013-08-18 04:04:00,55.3,53.6,30.11,SSE,167,0.0,0.0,94,0.00,,,0.00,Wunderground v.1.15,2013-08-18 09:04:00,
2013-08-18 04:09:00,55.7,54.0,30.11,SSE,167,0.0,0.0,94,0.00,,,0.00,Wunderground v.1.15,2013-08-18 09:09:00,
2013-08-18 04:14:00,55.9,54.2,30.11,SSE,167,0.0,0.0,94,0.00,,,0.00,Wunderground v.1.15,2013-08-18 09:14:00,
2013-08-18 04:19:00,56.2,54.5,30.11,SSE,167,0.0,0.0,94,0.00,,,0.00,Wunderground v.1.15,2013-08-18 09:19:00,
2013-08-18 04:24:00,56.2,54.2,30.11,SSE,167,0.0,0.0,93,0.00,,,0.00,Wunderground v.1.15,2013-08-18 09:24:00,
2013-08-18 04:29:00,56.2,54.2,30.11,SSE,167,0.0,0.0,93,0.00,,,0.00,Wunderground v.1.15,2013-08-18 09:29:00,
2013-08-18 04:34:00,55.9,53.6,30.11,SSE,167,0.0,0.0,92,0.00,,,0.00,Wunderground v.1.15,2013-08-18 09:34:00,
2013-08-18 04:39:00,55.4,53.1,30.11,SSE,167,0.0,0.0,92,0.00,,,0.00,Wunderground v.1.15,2013-08-18 09:39:00,
2013-08-18 04:44:00,55.3,53.0,30.12,SSE,167,0.0,0.0,92,0.00,,,0.00,Wunderground v.1.15,2013-08-18 09:44:00,
2013-08-18 04:50:00,55.0,52.7,30.12,SSE,167,0.0,0.0,92,0.00,,,0.00,Wunderground v.1.15,2013-08-18 09:50:00,
2013-08-18 04:55:00,55.2,53.5,30.12,SSE,167,1.0,1.0,94,0.00,,,0.00,Wunderground v.1.15,2013-08-18 09:55:00,
2013-08-18 05:00:00,55.8,54.4,30.12,SSE,167,0.0,0.0,95,0.00,,,0.00,Wunderground v.1.15,2013-08-18 10:00:00,
2013-08-18 05:05:00,56.0,53.7,30.12,SSE,167,0.0,0.0,92,0.00,,,0.00,Wunderground v.1.15,2013-08-18 10:05:00,
2013-08-18 05:10:00,55.2,52.3,30.12,SSE,167,0.0,0.0,90,0.00,,,0.00,Wunderground v.1.15,2013-08-18 10:10:00,
2013-08-18 05:15:00,54.5,51.3,30.12,SSE,167,0.0,0.0,89,0.00,,,0.00,Wunderground v.1.15,2013-08-18 10:15:00,
2013-08-18 05:20:00,54.0,51.4,30.12,SSE,167,0.0,0.0,91,0.00,,,0.00,Wunderground v.1.15,2013-08-18 10:20:00,
2013-08-18 05:25:00,53.9,51.3,30.12,SSE,167,0.0,0.0,91,0.00,,,0.00,Wunderground v.1.15,2013-08-18 10:25:00,
2013-08-18 05:30:00,53.9,51.6,30.13,SSE,167,0.0,0.0,92,0.00,,,0.00,Wunderground v.1.15,2013-08-18 10:30:00,
2013-08-18 05:35:00,54.0,52.0,30.13,SSE,167,0.0,0.0,93,0.00,,,0.00,Wunderground v.1.15,2013-08-18 10:35:00,
2013-08-18 05:40:00,54.2,52.5,30.13,SSE,167,0.0,0.0,94,0.00,,,0.00,Wunderground v.1.15,2013-08-18 10:40:00,
2013-08-18 05:45:00,54.1,51.8,30.13,SSE,167,0.0,0.0,92,0.00,,,0.00,Wunderground v.1.15,2013-08-18 10:45:00,
2013-08-18 05:50:00,54.0,52.0,30.13,SSE,167,0.0,0.0,93,0.00,,,0.00,Wunderground v.1.15,2013-08-18 10:50:00,
2013-08-18 05:55:00,54.3,52.6,30.13,SSE,167,0.0,0.0,94,0.00,,,0.00,Wunderground v.1.15,2013-08-18 10:55:00,
2013-08-18 06:00:00,54.6,52.9,30.13,SSE,167,0.0,0.0,94,0.00,,,0.00,Wunderground v.1.15,2013-08-18 11:00:00,
2013-08-18 06:05:00,54.4,52.4,30.13,SSE,167,0.0,0.0,93,0.00,,,0.00,Wunderground v.1.15,2013-08-18 11:05:00,
2013-08-18 06:10:00,54.2,52.2,30.14,SSE,167,0.0,0.0,93,0.00,,,0.00,Wunderground v.1.15,2013-08-18 11:10:00,
2013-08-18 06:15:00,54.1,52.1,30.13,SSE,167,0.0,0.0,93,0.00,,,0.00,Wunderground v.1.15,2013-08-18 11:15:00,
2013-08-18 06:20:00,54.0,52.0,30.14,SSE,167,0.0,0.0,93,0.00,,,0.00,Wunderground v.1.15,2013-08-18 11:20:00,
2013-08-18 06:25:00,53.8,51.8,30.14,SSE,167,0.0,0.0,93,0.00,,,0.00,Wunderground v.1.15,2013-08-18 11:25:00,
2013-08-18 06:30:00,53.6,51.6,30.14,SSE,167,0.0,0.0,93,0.00,,,0.00,Wunderground v.1.15,2013-08-18 11:30:00,
2013-08-18 06:36:00,53.6,51.9,30.14,SSE,167,0.0,0.0,94,0.00,,,0.00,Wunderground v.1.15,2013-08-18 11:36:00,
2013-08-18 06:42:00,53.5,51.8,30.14,SSE,167,0.0,0.0,94,0.00,,,0.00,Wunderground v.1.15,2013-08-18 11:42:00,
2013-08-18 06:47:00,53.4,51.4,30.14,SSE,167,0.0,0.0,93,0.00,,,0.00,Wunderground v.1.15,2013-08-18 11:47:00,
2013-08-18 06:52:00,53.3,51.6,30.14,SSE,167,0.0,0.0,94,0.00,,,0.00,Wunderground v.1.15,2013-08-18 11:52:00,
2013-08-18 06:57:00,53.9,52.5,30.14,SSE,167,0.0,0.0,95,0.00,,,0.00,Wunderground v.1.15,2013-08-18 11:57:00,
2013-08-18 07:02:00,54.1,52.4,30.14,SSE,167,0.0,0.0,94,0.00,,,0.00,Wunderground v.1.15,2013-08-18 12:02:00,
2013-08-18 07:07:00,54.2,52.8,30.14,SSE,167,0.0,0.0,95,0.00,,,0.00,Wunderground v.1.15,2013-08-18 12:07:00,
2013-08-18 07:12:00,54.4,52.7,30.14,SSE,167,0.0,0.0,94,0.00,,,0.00,Wunderground v.1.15,2013-08-18 12:12:00,
2013-08-18 07:18:00,54.4,52.7,30.15,SSE,167,0.0,0.0,94,0.00,,,0.00,Wunderground v.1.15,2013-08-18 12:18:00,
2013-08-18 07:22:00,54.6,53.2,30.14,SSE,167,0.0,0.0,95,0.00,,,0.00,Wunderground v.1.15,2013-08-18 12:22:00,
2013-08-18 07:28:00,54.8,53.4,30.14,SSE,167,0.0,0.0,95,0.00,,,0.00,Wunderground v.1.15,2013-08-18 12:28:00,
2013-08-18 07:33:00,55.1,53.7,30.15,SSE,167,0.0,0.0,95,0.00,,,0.00,Wunderground v.1.15,2013-08-18 12:33:00,
2013-08-18 07:38:00,55.7,54.6,30.15,SSE,167,0.0,0.0,96,0.00,,,0.00,Wunderground v.1.15,2013-08-18 12:38:00,
2013-08-18 07:43:00,56.3,55.5,30.15,SSE,167,0.0,0.0,97,0.00,,,0.00,Wunderground v.1.15,2013-08-18 12:43:00,
2013-08-18 07:48:00,56.9,56.1,30.15,SSE,167,0.0,0.0,97,0.00,,,0.00,Wunderground v.1.15,2013-08-18 12:48:00,
2013-08-18 07:53:00,57.6,56.8,30.15,SSE,167,0.0,0.0,97,0.00,,,0.00,Wunderground v.1.15,2013-08-18 12:53:00,
2013-08-18 07:58:00,58.4,57.6,30.15,SSE,167,0.0,0.0,97,0.00,,,0.00,Wunderground v.1.15,2013-08-18 12:58:00,
2013-08-18 08:03:00,58.9,58.1,30.15,SSE,167,0.0,0.0,97,0.00,,,0.00,Wunderground v.1.15,2013-08-18 13:03:00,
2013-08-18 08:08:00,59.4,58.5,30.15,SSE,167,0.0,0.0,97,0.00,,,0.00,Wunderground v.1.15,2013-08-18 13:08:00,
2013-08-18 08:13:00,59.9,58.8,30.15,SSE,167,0.0,0.0,96,0.00,,,0.00,Wunderground v.1.15,2013-08-18 13:13:00,
2013-08-18 08:18:00,60.3,59.2,30.15,SSE,167,0.0,0.0,96,0.00,,,0.00,Wunderground v.1.15,2013-08-18 13:18:00,
2013-08-18 08:23:00,60.8,59.7,30.15,SSE,167,0.0,0.0,96,0.00,,,0.00,Wunderground v.1.15,2013-08-18 13:23:00,
2013-08-18 08:28:00,61.2,60.1,30.15,SSE,167,1.0,2.0,96,0.00,,,0.00,Wunderground v.1.15,2013-08-18 13:28:00,
2013-08-18 08:33:00,61.6,60.4,30.16,SSE,164,0.0,1.0,96,0.00,,,0.00,Wunderground v.1.15,2013-08-18 13:33:00,
2013-08-18 08:38:00,62.2,60.8,30.15,SSE,164,0.0,2.0,95,0.00,,,0.00,Wunderground v.1.15,2013-08-18 13:38:00,
2013-08-18 08:43:00,62.6,61.1,30.15,SSE,156,1.0,2.0,95,0.00,,,0.00,Wunderground v.1.15,2013-08-18 13:43:00,
2013-08-18 08:48:00,63.1,61.6,30.15,SSE,153,2.0,4.0,95,0.00,,,0.00,Wunderground v.1.15,2013-08-18 13:48:00,
2013-08-18 08:53:00,63.7,61.9,30.15,SSE,148,2.0,2.0,94,0.00,,,0.00,Wunderground v.1.15,2013-08-18 13:53:00,
2013-08-18 08:58:00,64.3,61.9,30.15,SSE,148,2.0,4.0,92,0.00,,,0.00,Wunderground v.1.15,2013-08-18 13:58:00,
2013-08-18 09:03:00,65.1,62.4,30.15,SSE,162,0.0,2.0,91,0.00,,,0.00,Wunderground v.1.15,2013-08-18 14:03:00,
2013-08-18 09:08:00,65.9,62.6,30.15,SSE,163,2.0,4.0,89,0.00,,,0.00,Wunderground v.1.15,2013-08-18 14:08:00,
2013-08-18 09:13:00,66.7,62.4,30.15,SSE,157,2.0,4.0,86,0.00,,,0.00,Wunderground v.1.15,2013-08-18 14:13:00,
2013-08-18 09:18:00,67.5,62.8,30.15,South,181,4.0,5.0,85,0.00,,,0.00,Wunderground v.1.15,2013-08-18 14:18:00,
2013-08-18 09:23:00,68.3,62.9,30.15,SSE,148,2.0,5.0,83,0.00,,,0.00,Wunderground v.1.15,2013-08-18 14:23:00,
2013-08-18 09:28:00,69.0,62.9,30.15,South,169,2.0,5.0,81,0.00,,,0.00,Wunderground v.1.15,2013-08-18 14:28:00,
2013-08-18 09:33:00,69.7,62.9,30.15,South,180,2.0,3.0,79,0.00,,,0.00,Wunderground v.1.15,2013-08-18 14:33:00,
2013-08-18 09:38:00,70.3,63.5,30.15,SSE,162,2.0,4.0,79,0.00,,,0.00,Wunderground v.1.15,2013-08-18 14:38:00,
2013-08-18 09:43:00,70.8,63.6,30.15,SE,135,1.0,4.0,78,0.00,,,0.00,Wunderground v.1.15,2013-08-18 14:43:00,
2013-08-18 09:48:00,71.3,63.7,30.14,SSE,166,2.0,5.0,77,0.00,,,0.00,Wunderground v.1.15,2013-08-18 14:48:00,
2013-08-18 09:53:00,71.6,63.6,30.14,SSE,157,4.0,5.0,76,0.00,,,0.00,Wunderground v.1.15,2013-08-18 14:53:00,
2013-08-18 09:58:00,72.0,63.3,30.15,South,169,5.0,7.0,74,0.00,,,0.00,Wunderground v.1.15,2013-08-18 14:58:00,
2013-08-18 10:03:00,72.3,63.9,30.14,SE,143,2.0,4.0,75,0.00,,,0.00,Wunderground v.1.15,2013-08-18 15:03:00,
2013-08-18 10:08:00,72.9,64.5,30.14,SSE,154,2.0,5.0,75,0.00,,,0.00,Wunderground v.1.15,2013-08-18 15:08:00,
2013-08-18 10:13:00,73.4,63.8,30.14,South,176,4.0,5.0,72,0.00,,,0.00,Wunderground v.1.15,2013-08-18 15:13:00,
2013-08-18 10:18:00,73.8,63.4,30.14,SE,130,6.0,7.0,70,0.00,,,0.00,Wunderground v.1.15,2013-08-18 15:18:00,
2013-08-18 10:23:00,74.0,64.4,30.14,SSE,153,4.0,4.0,72,0.00,,,0.00,Wunderground v.1.15,2013-08-18 15:23:00,
2013-08-18 10:28:00,74.4,63.6,30.14,South,186,8.0,8.0,69,0.00,,,0.00,Wunderground v.1.15,2013-08-18 15:28:00,
2013-08-18 10:33:00,74.2,64.2,30.14,SE,132,2.0,5.0,71,0.00,,,0.00,Wunderground v.1.15,2013-08-18 15:33:00,
2013-08-18 10:38:00,74.5,64.9,30.14,SE,134,2.0,5.0,72,0.00,,,0.00,Wunderground v.1.15,2013-08-18 15:38:00,
2013-08-18 10:43:00,74.8,62.2,30.14,SSE,167,5.0,7.0,65,0.00,,,0.00,Wunderground v.1.15,2013-08-18 15:43:00,
2013-08-18 10:48:00,75.1,62.1,30.14,SSE,167,4.0,7.0,64,0.00,,,0.00,Wunderground v.1.15,2013-08-18 15:48:00,
2013-08-18 10:53:00,75.4,63.2,30.14,South,171,7.0,7.0,66,0.00,,,0.00,Wunderground v.1.15,2013-08-18 15:53:00,
2013-08-18 10:58:00,75.2,62.2,30.13,SE,138,4.0,8.0,64,0.00,,,0.00,Wunderground v.1.15,2013-08-18 15:58:00,
2013-08-18 11:03:00,75.4,62.4,30.13,SSE,161,5.0,7.0,64,0.00,,,0.00,Wunderground v.1.15,2013-08-18 16:03:00,
2013-08-18 11:08:00,75.6,63.9,30.13,SSE,155,6.0,9.0,67,0.00,,,0.00,Wunderground v.1.15,2013-08-18 16:08:00,
2013-08-18 11:13:00,75.9,63.3,30.13,SSE,161,5.0,6.0,65,0.00,,,0.00,Wunderground v.1.15,2013-08-18 16:13:00,
2013-08-18 11:19:00,76.1,63.5,30.13,SSE,157,1.0,7.0,65,0.00,,,0.00,Wunderground v.1.15,2013-08-18 16:19:00,
2013-08-18 11:24:00,76.5,63.4,30.13,ESE,111,5.0,6.0,64,0.00,,,0.00,Wunderground v.1.15,2013-08-18 16:24:00,
2013-08-18 11:29:00,76.8,62.8,30.13,South,178,2.0,6.0,62,0.00,,,0.00,Wunderground v.1.15,2013-08-18 16:29:00,
2013-08-18 11:34:00,76.7,62.2,30.13,South,172,2.0,4.0,61,0.00,,,0.00,Wunderground v.1.15,2013-08-18 16:34:00,
2013-08-18 11:39:00,76.0,62.9,30.13,SE,139,4.0,6.0,64,0.00,,,0.00,Wunderground v.1.15,2013-08-18 16:39:00,
2013-08-18 11:44:00,75.3,62.3,30.13,South,175,7.0,9.0,64,0.00,,,0.00,Wunderground v.1.15,2013-08-18 16:44:00,
2013-08-18 11:49:00,75.4,61.5,30.12,South,169,6.0,11.0,62,0.00,,,0.00,Wunderground v.1.15,2013-08-18 16:49:00,
2013-08-18 11:54:00,75.0,61.5,30.12,South,188,5.0,8.0,63,0.00,,,0.00,Wunderground v.1.15,2013-08-18 16:54:00,
2013-08-18 11:59:00,75.4,61.9,30.12,South,174,9.0,9.0,63,0.00,,,0.00,Wunderground v.1.15,2013-08-18 16:59:00,
2013-08-18 12:04:00,76.2,62.7,30.12,SSE,168,4.0,7.0,63,0.00,,,0.00,Wunderground v.1.15,2013-08-18 17:04:00,
2013-08-18 12:09:00,76.7,62.2,30.12,SE,139,1.0,4.0,61,0.00,,,0.00,Wunderground v.1.15,2013-08-18 17:09:00,
2013-08-18 12:14:00,76.8,61.9,30.12,South,190,7.0,11.0,60,0.00,,,0.00,Wunderground v.1.15,2013-08-18 17:14:00,
2013-08-18 12:19:00,76.7,61.8,30.12,South,189,6.0,11.0,60,0.00,,,0.00,Wunderground v.1.15,2013-08-18 17:19:00,
2013-08-18 12:24:00,76.7,61.3,30.12,SSE,155,7.0,7.0,59,0.00,,,0.00,Wunderground v.1.15,2013-08-18 17:24:00,
2013-08-18 12:29:00,76.9,62.9,30.11,SE,138,5.0,10.0,62,0.00,,,0.00,Wunderground v.1.15,2013-08-18 17:29:00,
2013-08-18 12:34:00,76.9,61.5,30.11,SSW,213,7.0,10.0,59,0.00,,,0.00,Wunderground v.1.15,2013-08-18 17:34:00,
2013-08-18 12:39:00,76.7,63.2,30.11,South,184,4.0,10.0,63,0.00,,,0.00,Wunderground v.1.15,2013-08-18 17:39:00,
2013-08-18 12:44:00,76.6,60.7,30.11,SE,142,4.0,7.0,58,0.00,,,0.00,Wunderground v.1.15,2013-08-18 17:44:00,
2013-08-18 12:49:00,76.4,62.9,30.11,SSE,160,7.0,10.0,63,0.00,,,0.00,Wunderground v.1.15,2013-08-18 17:49:00,
2013-08-18 12:54:00,76.1,61.7,30.11,SSE,150,2.0,4.0,61,0.00,,,0.00,Wunderground v.1.15,2013-08-18 17:54:00,
2013-08-18 12:59:00,76.6,62.1,30.11,SSE,153,7.0,9.0,61,0.00,,,0.00,Wunderground v.1.15,2013-08-18 17:59:00,
2013-08-18 13:04:00,76.8,60.4,30.11,South,180,2.0,5.0,57,0.00,,,0.00,Wunderground v.1.15,2013-08-18 18:04:00,
2013-08-18 13:09:00,76.2,60.8,30.11,SSE,161,2.0,6.0,59,0.00,,,0.00,Wunderground v.1.15,2013-08-18 18:09:00,
2013-08-18 13:14:00,76.4,62.9,30.11,South,177,7.0,10.0,63,0.00,,,0.00,Wunderground v.1.15,2013-08-18 18:14:00,
2013-08-18 13:19:00,77.2,62.2,30.11,SSE,154,5.0,10.0,60,0.00,,,0.00,Wunderground v.1.15,2013-08-18 18:19:00,
2013-08-18 13:24:00,77.6,61.7,30.11,SSW,206,6.0,10.0,58,0.00,,,0.00,Wunderground v.1.15,2013-08-18 18:24:00,
2013-08-18 13:29:00,77.1,62.6,30.10,SSE,167,2.0,10.0,61,0.00,,,0.00,Wunderground v.1.15,2013-08-18 18:29:00,
2013-08-18 13:34:00,77.1,61.2,30.10,South,175,4.0,5.0,58,0.00,,,0.00,Wunderground v.1.15,2013-08-18 18:34:00,
2013-08-18 13:39:00,77.5,62.5,30.10,SE,136,5.0,6.0,60,0.00,,,0.00,Wunderground v.1.15,2013-08-18 18:39:00,
2013-08-18 13:44:00,78.0,63.0,30.10,SSE,147,1.0,5.0,60,0.00,,,0.00,Wunderground v.1.15,2013-08-18 18:44:00,
2013-08-18 13:49:00,78.6,62.1,30.10,SSE,153,1.0,5.0,57,0.00,,,0.00,Wunderground v.1.15,2013-08-18 18:49:00,
2013-08-18 13:54:00,78.8,61.3,30.09,SSW,200,6.0,6.0,55,0.00,,,0.00,Wunderground v.1.15,2013-08-18 18:54:00,
2013-08-18 13:59:00,78.4,64.3,30.09,SSE,162,4.0,6.0,62,0.00,,,0.00,Wunderground v.1.15,2013-08-18 18:59:00,
2013-08-18 14:04:00,78.7,61.7,30.09,South,169,4.0,4.0,56,0.00,,,0.00,Wunderground v.1.15,2013-08-18 19:04:00,
2013-08-18 14:09:00,79.0,62.0,30.09,SSW,198,5.0,8.0,56,0.00,,,0.00,Wunderground v.1.15,2013-08-18 19:09:00,
2013-08-18 14:14:00,78.8,61.8,30.09,South,174,6.0,9.0,56,0.00,,,0.00,Wunderground v.1.15,2013-08-18 19:14:00,
2013-08-18 14:19:00,78.5,62.0,30.09,South,187,4.0,9.0,57,0.00,,,0.00,Wunderground v.1.15,2013-08-18 19:19:00,
2013-08-18 14:25:00,78.2,61.2,30.09,South,190,6.0,6.0,56,0.00,,,0.00,Wunderground v.1.15,2013-08-18 19:25:00,
2013-08-18 14:30:00,78.2,63.2,30.09,ESE,116,1.0,6.0,60,0.00,,,0.00,Wunderground v.1.15,2013-08-18 19:30:00,
2013-08-18 14:35:00,78.8,63.3,30.09,SSW,195,5.0,8.0,59,0.00,,,0.00,Wunderground v.1.15,2013-08-18 19:35:00,
2013-08-18 14:40:00,78.4,60.9,30.08,East,96,2.0,8.0,55,0.00,,,0.00,Wunderground v.1.15,2013-08-18 19:40:00,
2013-08-18 14:45:00,78.4,60.9,30.08,South,169,4.0,5.0,55,0.00,,,0.00,Wunderground v.1.15,2013-08-18 19:45:00,
2013-08-18 14:50:00,78.5,61.5,30.08,South,186,3.0,9.0,56,0.00,,,0.00,Wunderground v.1.15,2013-08-18 19:50:00,
2013-08-18 14:55:00,78.6,60.6,30.08,ESE,115,5.0,5.0,54,0.00,,,0.00,Wunderground v.1.15,2013-08-18 19:55:00,
2013-08-18 15:00:00,78.7,62.2,30.07,South,178,7.0,7.0,57,0.00,,,0.00,Wunderground v.1.15,2013-08-18 20:00:00,
2013-08-18 15:05:00,78.9,62.4,30.07,SSE,159,9.0,10.0,57,0.00,,,0.00,Wunderground v.1.15,2013-08-18 20:05:00,
2013-08-18 15:10:00,79.2,61.1,30.07,South,186,5.0,8.0,54,0.00,,,0.00,Wunderground v.1.15,2013-08-18 20:10:00,
2013-08-18 15:15:00,78.9,60.3,30.07,South,190,3.0,7.0,53,0.00,,,0.00,Wunderground v.1.15,2013-08-18 20:15:00,
2013-08-18 15:20:00,79.2,62.7,30.07,SSE,164,1.0,7.0,57,0.00,,,0.00,Wunderground v.1.15,2013-08-18 20:20:00,
2013-08-18 15:25:00,79.6,62.0,30.07,SSW,204,6.0,7.0,55,0.00,,,0.00,Wunderground v.1.15,2013-08-18 20:25:00,
2013-08-18 15:30:00,79.5,62.4,30.06,South,169,5.0,9.0,56,0.00,,,0.00,Wunderground v.1.15,2013-08-18 20:30:00,
2013-08-18 15:35:00,79.6,62.5,30.06,SSE,163,5.0,8.0,56,0.00,,,0.00,Wunderground v.1.15,2013-08-18 20:35:00,
2013-08-18 15:40:00,79.6,63.0,30.06,SE,131,2.0,8.0,57,0.00,,,0.00,Wunderground v.1.15,2013-08-18 20:40:00,
2013-08-18 15:45:00,79.9,62.8,30.06,South,182,4.0,6.0,56,0.00,,,0.00,Wunderground v.1.15,2013-08-18 20:45:00,
2013-08-18 15:50:00,79.8,60.6,30.06,SSW,198,7.0,10.0,52,0.00,,,0.00,Wunderground v.1.15,2013-08-18 20:50:00,
2013-08-18 15:55:00,79.6,61.5,30.06,SSE,162,5.0,8.0,54,0.00,,,0.00,Wunderground v.1.15,2013-08-18 20:55:00,
2013-08-18 16:00:00,79.2,60.1,30.06,South,186,4.0,5.0,52,0.00,,,0.00,Wunderground v.1.15,2013-08-18 21:00:00,
2013-08-18 16:05:00,78.6,61.1,30.06,South,183,7.0,9.0,55,0.00,,,0.00,Wunderground v.1.15,2013-08-18 21:05:00,
2013-08-18 16:10:00,78.7,61.7,30.06,SSW,195,5.0,9.0,56,0.00,,,0.00,Wunderground v.1.15,2013-08-18 21:10:00,
2013-08-18 16:15:00,78.7,60.1,30.06,SSW,212,3.0,6.0,53,0.00,,,0.00,Wunderground v.1.15,2013-08-18 21:15:00,
2013-08-18 16:20:00,78.7,60.1,30.06,South,176,4.0,6.0,53,0.00,,,0.00,Wunderground v.1.15,2013-08-18 21:20:00,
2013-08-18 16:25:00,79.1,62.6,30.06,South,186,2.0,9.0,57,0.00,,,0.00,Wunderground v.1.15,2013-08-18 21:25:00,
2013-08-18 16:30:00,79.5,61.4,30.06,South,169,5.0,9.0,54,0.00,,,0.00,Wunderground v.1.15,2013-08-18 21:30:00,
2013-08-18 16:35:00,79.7,59.4,30.07,SSE,155,4.0,4.0,50,0.00,,,0.00,Wunderground v.1.15,2013-08-18 21:35:00,
2013-08-18 16:40:00,79.8,62.7,30.07,SSE,151,4.0,5.0,56,0.00,,,0.00,Wunderground v.1.15,2013-08-18 21:40:00,
2013-08-18 16:45:00,79.7,61.6,30.06,South,175,6.0,6.0,54,0.00,,,0.00,Wunderground v.1.15,2013-08-18 21:45:00,
2013-08-18 16:50:00,79.5,62.4,30.07,South,184,3.0,7.0,56,0.00,,,0.00,Wunderground v.1.15,2013-08-18 21:50:00,
2013-08-18 16:55:00,78.9,61.9,30.07,SSW,207,2.0,4.0,56,0.00,,,0.00,Wunderground v.1.15,2013-08-18 21:55:00,
2013-08-18 17:00:00,79.0,60.9,30.07,South,191,3.0,4.0,54,0.00,,,0.00,Wunderground v.1.15,2013-08-18 22:00:00,
2013-08-18 17:05:00,79.4,62.8,30.06,South,178,4.0,6.0,57,0.00,,,0.00,Wunderground v.1.15,2013-08-18 22:05:00,
2013-08-18 17:10:00,79.9,61.2,30.07,SSW,193,3.0,4.0,53,0.00,,,0.00,Wunderground v.1.15,2013-08-18 22:10:00,
2013-08-18 17:15:00,80.1,62.0,30.07,SSE,163,2.0,7.0,54,0.00,,,0.00,Wunderground v.1.15,2013-08-18 22:15:00,
2013-08-18 17:20:00,80.2,61.0,30.06,SSE,150,2.0,7.0,52,0.00,,,0.00,Wunderground v.1.15,2013-08-18 22:20:00,
2013-08-18 17:25:00,80.4,62.8,30.06,South,188,6.0,8.0,55,0.00,,,0.00,Wunderground v.1.15,2013-08-18 22:25:00,
2013-08-18 17:30:00,80.2,62.0,30.06,South,186,4.0,8.0,54,0.00,,,0.00,Wunderground v.1.15,2013-08-18 22:30:00,
2013-08-18 17:35:00,79.7,61.1,30.06,South,185,3.0,6.0,53,0.00,,,0.00,Wunderground v.1.15,2013-08-18 22:35:00,
2013-08-18 17:40:00,79.4,59.7,30.06,SW,226,4.0,6.0,51,0.00,,,0.00,Wunderground v.1.15,2013-08-18 22:40:00,
2013-08-18 17:45:00,78.8,61.3,30.06,SSW,193,2.0,5.0,55,0.00,,,0.00,Wunderground v.1.15,2013-08-18 22:45:00,
2013-08-18 17:50:00,78.6,61.1,30.06,SW,232,3.0,5.0,55,0.00,,,0.00,Wunderground v.1.15,2013-08-18 22:50:00,
2013-08-18 17:55:00,78.9,61.4,30.06,South,175,2.0,4.0,55,0.00,,,0.00,Wunderground v.1.15,2013-08-18 22:55:00,
2013-08-18 18:00:00,79.0,60.9,30.06,South,186,4.0,7.0,54,0.00,,,0.00,Wunderground v.1.15,2013-08-18 23:00:00,
2013-08-18 18:05:00,78.7,61.7,30.06,South,185,5.0,6.0,56,0.00,,,0.00,Wunderground v.1.15,2013-08-18 23:05:00,
2013-08-18 18:10:00,78.4,61.9,30.06,SSW,192,4.0,4.0,57,0.00,,,0.00,Wunderground v.1.15,2013-08-18 23:10:00,
2013-08-18 18:15:00,78.2,61.7,30.05,South,172,4.0,7.0,57,0.00,,,0.00,Wunderground v.1.15,2013-08-18 23:15:00,
2013-08-18 18:20:00,77.9,60.9,30.05,South,182,2.0,7.0,56,0.00,,,0.00,Wunderground v.1.15,2013-08-18 23:20:00,
2013-08-18 18:25:00,77.8,62.8,30.05,South,183,1.0,4.0,60,0.00,,,0.00,Wunderground v.1.15,2013-08-18 23:25:00,
2013-08-18 18:30:00,77.8,63.3,30.05,SSW,194,1.0,4.0,61,0.00,,,0.00,Wunderground v.1.15,2013-08-18 23:30:00,
2013-08-18 18:35:00,77.8,63.7,30.05,SSW,194,2.0,2.0,62,0.00,,,0.00,Wunderground v.1.15,2013-08-18 23:35:00,
2013-08-18 18:40:00,77.5,63.0,30.05,SSW,194,0.0,2.0,61,0.00,,,0.00,Wunderground v.1.15,2013-08-18 23:40:00,
2013-08-18 18:45:00,77.4,62.9,30.05,SSW,194,1.0,2.0,61,0.00,,,0.00,Wunderground v.1.15,2013-08-18 23:45:00,
2013-08-18 18:50:00,77.4,62.9,30.05,SSW,194,1.0,2.0,61,0.00,,,0.00,Wunderground v.1.15,2013-08-18 23:50:00,
2013-08-18 18:55:00,77.3,61.4,30.05,South,180,2.0,4.0,58,0.00,,,0.00,Wunderground v.1.15,2013-08-18 23:55:00,
2013-08-18 19:00:00,77.2,62.7,30.05,South,171,2.0,2.0,61,0.00,,,0.00,Wunderground v.1.15,2013-08-19 00:00:00,
2013-08-18 19:05:00,76.9,62.4,30.04,SSE,164,4.0,5.0,61,0.00,,,0.00,Wunderground v.1.15,2013-08-19 00:05:00,
2013-08-18 19:10:00,76.5,63.0,30.04,South,169,2.0,4.0,63,0.00,,,0.00,Wunderground v.1.15,2013-08-19 00:10:00,
2013-08-18 19:15:00,76.1,63.0,30.05,South,169,2.0,4.0,64,0.00,,,0.00,Wunderground v.1.15,2013-08-19 00:15:00,
2013-08-18 19:20:00,75.7,62.7,30.04,South,169,4.0,4.0,64,0.00,,,0.00,Wunderground v.1.15,2013-08-19 00:20:00,
2013-08-18 19:26:00,75.3,62.7,30.04,South,169,1.0,4.0,65,0.00,,,0.00,Wunderground v.1.15,2013-08-19 00:26:00,
2013-08-18 19:32:00,74.9,62.3,30.04,SSE,161,2.0,2.0,65,0.00,,,0.00,Wunderground v.1.15,2013-08-19 00:32:00,
2013-08-18 19:37:00,74.7,62.1,30.04,SSE,163,2.0,4.0,65,0.00,,,0.00,Wunderground v.1.15,2013-08-19 00:37:00,
2013-08-18 19:42:00,74.4,63.1,30.04,SSE,163,1.0,2.0,68,0.00,,,0.00,Wunderground v.1.15,2013-08-19 00:42:00,
2013-08-18 19:47:00,74.2,63.0,30.04,SSE,163,1.0,4.0,68,0.00,,,0.00,Wunderground v.1.15,2013-08-19 00:47:00,
2013-08-18 19:52:00,73.9,62.7,30.04,SSE,157,4.0,4.0,68,0.00,,,0.00,Wunderground v.1.15,2013-08-19 00:52:00,
2013-08-18 19:57:00,73.6,63.2,30.04,SSE,157,1.0,4.0,70,0.00,,,0.00,Wunderground v.1.15,2013-08-19 00:57:00,
2013-08-18 20:02:00,73.0,63.4,30.04,SSE,157,0.0,1.0,72,0.00,,,0.00,Wunderground v.1.15,2013-08-19 01:02:00,
2013-08-18 20:07:00,72.5,63.4,30.04,SSE,157,1.0,1.0,73,0.00,,,0.00,Wunderground v.1.15,2013-08-19 01:07:00,
2013-08-18 20:13:00,71.9,62.8,30.04,SSE,155,1.0,4.0,73,0.00,,,0.00,Wunderground v.1.15,2013-08-19 01:13:00,
2013-08-18 20:18:00,71.5,62.8,30.04,SSE,155,2.0,4.0,74,0.00,,,0.00,Wunderground v.1.15,2013-08-19 01:18:00,
2013-08-18 20:23:00,71.1,62.0,30.04,SSE,155,1.0,2.0,73,0.00,,,0.00,Wunderground v.1.15,2013-08-19 01:23:00,
2013-08-18 20:28:00,71.0,61.9,30.04,SSE,155,2.0,2.0,73,0.00,,,0.00,Wunderground v.1.15,2013-08-19 01:28:00,
2013-08-18 20:33:00,70.8,61.7,30.04,SSE,155,1.0,2.0,73,0.00,,,0.00,Wunderground v.1.15,2013-08-19 01:33:00,
2013-08-18 20:42:00,70.3,61.2,30.04,SSE,155,1.0,1.0,73,0.00,,,0.00,Wunderground v.1.15,2013-08-19 01:42:00,
2013-08-18 20:47:00,70.1,61.0,30.04,SSE,155,0.0,2.0,73,0.00,,,0.00,Wunderground v.1.15,2013-08-19 01:47:00,
2013-08-18 20:52:00,69.8,61.1,30.04,SSE,155,0.0,1.0,74,0.00,,,0.00,Wunderground v.1.15,2013-08-19 01:52:00,
2013-08-18 20:57:00,69.5,60.8,30.04,SSE,155,0.0,1.0,74,0.00,,,0.00,Wunderground v.1.15,2013-08-19 01:57:00,
2013-08-18 21:02:00,69.2,60.6,30.05,SSE,155,0.0,0.0,74,0.00,,,0.00,Wunderground v.1.15,2013-08-19 02:02:00,
2013-08-18 21:07:00,68.8,60.6,30.05,SSE,155,0.0,0.0,75,0.00,,,0.00,Wunderground v.1.15,2013-08-19 02:07:00,
2013-08-18 21:12:00,68.5,60.6,30.05,SSE,155,0.0,0.0,76,0.00,,,0.00,Wunderground v.1.15,2013-08-19 02:12:00,
2013-08-18 21:17:00,68.0,60.2,30.05,SSE,155,1.0,2.0,76,0.00,,,0.00,Wunderground v.1.15,2013-08-19 02:17:00,
2013-08-18 21:22:00,68.0,60.5,30.05,SSE,155,0.0,0.0,77,0.00,,,0.00,Wunderground v.1.15,2013-08-19 02:22:00,
2013-08-18 21:27:00,67.8,60.3,30.05,SSE,155,0.0,0.0,77,0.00,,,0.00,Wunderground v.1.15,2013-08-19 02:27:00,
2013-08-18 21:33:00,67.2,59.7,30.05,SSE,155,0.0,0.0,77,0.00,,,0.00,Wunderground v.1.15,2013-08-19 02:33:00,
2013-08-18 21:38:00,66.6,59.9,30.05,SSE,155,0.0,0.0,79,0.00,,,0.00,Wunderground v.1.15,2013-08-19 02:38:00,
2013-08-18 21:43:00,66.2,59.8,30.05,SSE,155,0.0,0.0,80,0.00,,,0.00,Wunderground v.1.15,2013-08-19 02:43:00,
2013-08-18 21:48:00,65.9,60.2,30.05,SSE,155,0.0,1.0,82,0.00,,,0.00,Wunderground v.1.15,2013-08-19 02:48:00,
2013-08-18 21:53:00,65.8,60.2,30.05,SSE,155,0.0,0.0,82,0.00,,,0.00,Wunderground v.1.15,2013-08-19 02:53:00,
2013-08-18 21:58:00,65.5,59.5,30.05,SSE,155,0.0,1.0,81,0.00,,,0.00,Wunderground v.1.15,2013-08-19 02:58:00,
2013-08-18 22:03:00,65.2,59.2,30.05,SSE,155,0.0,0.0,81,0.00,,,0.00,Wunderground v.1.15,2013-08-19 03:03:00,
2013-08-18 22:08:00,64.5,58.5,30.05,SSE,155,0.0,0.0,81,0.00,,,0.00,Wunderground v.1.15,2013-08-19 03:08:00,
2013-08-18 22:13:00,64.3,59.4,30.05,SSE,155,0.0,0.0,84,0.00,,,0.00,Wunderground v.1.15,2013-08-19 03:13:00,
2013-08-18 22:18:00,64.1,59.2,30.05,SSE,155,0.0,1.0,84,0.00,,,0.00,Wunderground v.1.15,2013-08-19 03:18:00,
2013-08-18 22:23:00,64.1,58.8,30.05,SSE,155,0.0,0.0,83,0.00,,,0.00,Wunderground v.1.15,2013-08-19 03:23:00,
2013-08-18 22:28:00,63.4,57.5,30.05,SSE,155,0.0,1.0,81,0.00,,,0.00,Wunderground v.1.15,2013-08-19 03:28:00,
2013-08-18 22:33:00,62.9,57.7,30.05,SSE,155,0.0,0.0,83,0.00,,,0.00,Wunderground v.1.15,2013-08-19 03:33:00,
2013-08-18 22:38:00,62.9,58.3,30.05,SSE,155,0.0,0.0,85,0.00,,,0.00,Wunderground v.1.15,2013-08-19 03:38:00,
2013-08-18 22:43:00,63.1,58.5,30.05,SSE,155,0.0,0.0,85,0.00,,,0.00,Wunderground v.1.15,2013-08-19 03:43:00,
2013-08-18 22:48:00,63.4,58.8,30.05,SSE,155,0.0,1.0,85,0.00,,,0.00,Wunderground v.1.15,2013-08-19 03:48:00,
2013-08-18 22:53:00,63.6,58.7,30.05,SSE,155,0.0,0.0,84,0.00,,,0.00,Wunderground v.1.15,2013-08-19 03:53:00,
2013-08-18 22:58:00,63.5,58.2,30.05,SSE,155,0.0,0.0,83,0.00,,,0.00,Wunderground v.1.15,2013-08-19 03:58:00,
2013-08-18 23:02:00,63.4,58.5,30.05,SSE,155,0.0,0.0,84,0.00,,,0.00,Wunderground v.1.15,2013-08-19 04:02:00,
2013-08-18 23:03:00,63.3,58.4,30.05,SSE,155,0.0,0.0,84,0.00,,,0.00,Wunderground v.1.15,2013-08-19 04:03:00,
2013-08-18 23:04:00,63.3,58.4,30.05,SSE,155,0.0,0.0,84,0.00,,,0.00,Wunderground v.1.15,2013-08-19 04:04:00,
2013-08-18 23:09:00,63.3,58.4,30.05,SSE,155,0.0,0.0,84,0.00,,,0.00,Wunderground v.1.15,2013-08-19 04:09:00,
2013-08-18 23:14:00,63.1,58.2,30.05,SSE,155,0.0,0.0,84,0.00,,,0.00,Wunderground v.1.15,2013-08-19 04:14:00,
2013-08-18 23:19:00,63.0,58.1,30.05,SSE,155,0.0,0.0,84,0.00,,,0.00,Wunderground v.1.15,2013-08-19 04:19:00,
2013-08-18 23:24:00,62.7,57.1,30.05,SSE,155,0.0,0.0,82,0.00,,,0.00,Wunderground v.1.15,2013-08-19 04:24:00,
2013-08-18 23:29:00,62.3,56.7,30.05,SSE,155,0.0,0.0,82,0.00,,,0.00,Wunderground v.1.15,2013-08-19 04:29:00,
2013-08-18 23:34:00,62.1,57.2,30.05,SSE,155,0.0,0.0,84,0.00,,,0.00,Wunderground v.1.15,2013-08-19 04:34:00,
2013-08-18 23:39:00,62.1,57.9,30.05,SSE,155,0.0,2.0,86,0.00,,,0.00,Wunderground v.1.15,2013-08-19 04:39:00,
2013-08-18 23:44:00,62.3,58.1,30.05,SSE,155,0.0,1.0,86,0.00,,,0.00,Wunderground v.1.15,2013-08-19 04:44:00,
2013-08-18 23:56:00,61.7,56.5,30.05,SSE,155,0.0,1.0,83,0.00,,,0.00,Wunderground v.1.15,2013-08-19 04:56:00,